Woody Richerson — WDF9621 — position and weather

sailwx.info

Track history (hours):
 
Tides and Currents Weather Stations Pressure Air Temp Water Temp Dewpoint Dewpoint Depression Visibility Wind Speed Wind Dir Waves Ship Positions

Woody Richerson

Owner: Florida Marine, LLC, Mandeville, LA. More information available from US FCC via Universal Licensing System and Coast Guard Vessel Documentation Center.

Last reported at 2018-May-25 13:42 UTC. Time now 2018-May-25 22:22 UTC.
Position N 29°52' W 092°23'.

Length 27 m; draft 2.9 m.

Type: Other ship. MMSI: 367507070.

Date/timePositionNaut miles runAvg speedWind from/ knotsBaromVisibWave heightAir tempDewpointWater temp
2018-May-25 13:42N 29°52' W 092°23'1 4.6
2018-May-25 13:23N 29°51' W 092°22'2 4.8
2018-May-25 13:00N 29°51' W 092°20'2 4.3
2018-May-25 12:30N 29°50' W 092°18'2 4.8
2018-May-25 12:00N 29°48' W 092°15'3 5.3
2018-May-25 11:30N 29°47' W 092°12'1 1.1
2018-May-25 11:00N 29°47' W 092°12'1 2.2
2018-May-25 10:30N 29°47' W 092°11'2 3.3
2018-May-25 10:00N 29°47' W 092°09'2 5.0
2018-May-25 09:30N 29°48' W 092°06'3 5.0
2018-May-25 08:59N 29°49' W 092°03'63 4.2
2018-May-24 18:09N 29°33' W 090°54'2 5.3
2018-May-24 17:44N 29°32' W 090°51'1 5.7
2018-May-24 17:30N 29°32' W 090°50'3 5.5
2018-May-24 17:00N 29°32' W 090°47'2 4.7
2018-May-24 16:30N 29°34' W 090°45'2 3.6
2018-May-24 16:00N 29°35' W 090°43'2 4.1
2018-May-24 15:30N 29°37' W 090°42'0 0.5
2018-May-24 15:00N 29°37' W 090°42'0 0.0
2018-May-24 14:30N 29°37' W 090°42'0 0.6
2018-May-24 14:00N 29°37' W 090°42'2 3.6
2018-May-24 13:30N 29°36' W 090°40'  
Track history (hours):
 
Tides and Currents Weather Stations Pressure Air Temp Water Temp Dewpoint Dewpoint Depression Visibility Wind Speed Wind Dir Waves Ship Positions

Woody Richerson

Owner: Florida Marine, LLC, Mandeville, LA. More information available from US FCC via Universal Licensing System and Coast Guard Vessel Documentation Center.

Last reported at 2018-May-25 13:42 UTC. Time now 2018-May-25 22:22 UTC.
Position N 29°52' W 092°23'.

Length 27 m; draft 2.9 m.

Type: Other ship. MMSI: 367507070.

Date/timePositionNaut miles runAvg speedWind from/ knotsBaromVisibWave heightAir tempDewpointWater temp
2018-May-25 13:42N 29°52' W 092°23'1 4.6
2018-May-25 13:23N 29°51' W 092°22'2 4.8
2018-May-25 13:00N 29°51' W 092°20'2 4.3
2018-May-25 12:30N 29°50' W 092°18'2 4.8
2018-May-25 12:00N 29°48' W 092°15'3 5.3
2018-May-25 11:30N 29°47' W 092°12'1 1.1
2018-May-25 11:00N 29°47' W 092°12'1 2.2
2018-May-25 10:30N 29°47' W 092°11'2 3.3
2018-May-25 10:00N 29°47' W 092°09'2 5.0
2018-May-25 09:30N 29°48' W 092°06'3 5.0
2018-May-25 08:59N 29°49' W 092°03'63 4.2
2018-May-24 18:09N 29°33' W 090°54'2 5.3
2018-May-24 17:44N 29°32' W 090°51'1 5.7
2018-May-24 17:30N 29°32' W 090°50'3 5.5
2018-May-24 17:00N 29°32' W 090°47'2 4.7
2018-May-24 16:30N 29°34' W 090°45'2 3.6
2018-May-24 16:00N 29°35' W 090°43'2 4.1
2018-May-24 15:30N 29°37' W 090°42'0 0.5
2018-May-24 15:00N 29°37' W 090°42'0 0.0
2018-May-24 14:30N 29°37' W 090°42'0 0.6
2018-May-24 14:00N 29°37' W 090°42'2 3.6
2018-May-24 13:30N 29°36' W 090°40'  

Dump ship's entire track history